Time;durP1;ratioP1;P1;durP2;ratioP2;P2;SDS_P1;SDS_P2;PMS_P1;PMS_P2;Temp;Humidity;BMP_temperature;BMP_pressure;BME280_temperature;BME280_humidity;BME280_pressure;Samples;Min_cycle;Max_cycle;Signal;HPM_P1;HPM_P2
2023/07/05 00:00:42;;;;;;;0.00;0.00;;;;;;;;;;5114295;28;20048;-82
2023/07/05 00:03:08;;;;;;;0.00;0.00;;;;;;;;;;5114298;28;20547;-82
2023/07/05 00:05:36;;;;;;;0.00;0.00;;;;;;;;;;5114040;28;20054;-82
2023/07/05 00:08:02;;;;;;;0.00;0.00;;;;;;;;;;5115552;28;20046;-82
2023/07/05 00:10:28;;;;;;;0.00;0.00;;;;;;;;;;5114148;28;20145;-82
2023/07/05 00:12:54;;;;;;;0.00;0.00;;;;;;;;;;5115559;28;20111;-81
2023/07/05 00:15:19;;;;;;;0.00;0.00;;;;;;;;;;5115083;28;20032;-82
2023/07/05 00:17:45;;;;;;;0.00;0.00;;;;;;;;;;5114252;28;20435;-82
2023/07/05 00:20:12;;;;;;;0.00;0.00;;;;;;;;;;5113790;28;20039;-82
2023/07/05 00:22:38;;;;;;;0.00;0.00;;;;;;;;;;5115464;28;20058;-82
2023/07/05 00:25:04;;;;;;;0.00;0.00;;;;;;;;;;5113667;28;20039;-82
2023/07/05 00:27:30;;;;;;;0.00;0.00;;;;;;;;;;5115292;28;20445;-82
2023/07/05 00:29:56;;;;;;;0.00;0.00;;;;;;;;;;5115090;27;20035;-82
2023/07/05 00:32:22;;;;;;;0.00;0.00;;;;;;;;;;5113991;28;20039;-82
2023/07/05 00:34:48;;;;;;;0.00;0.00;;;;;;;;;;5113664;28;20116;-81
2023/07/05 00:37:14;;;;;;;0.00;0.00;;;;;;;;;;5096790;28;20515;-82
2023/07/05 00:39:40;;;;;;;0.00;0.00;;;;;;;;;;5113618;28;20039;-82
2023/07/05 00:42:06;;;;;;;0.00;0.00;;;;;;;;;;5113586;28;20453;-82
2023/07/05 00:44:33;;;;;;;0.00;0.00;;;;;;;;;;5113930;28;20036;-82
2023/07/05 00:47:23;;;;;;;0.00;0.00;;;;;;;;;;5113236;28;20036;-82
2023/07/05 00:49:49;;;;;;;0.00;0.00;;;;;;;;;;5113003;28;20398;-82
2023/07/05 00:52:16;;;;;;;0.00;0.00;;;;;;;;;;5113798;28;20391;-82
2023/07/05 00:54:44;;;;;;;0.00;0.00;;;;;;;;;;5114810;28;20039;-82
2023/07/05 00:57:28;;;;;;;0.00;0.00;;;;;;;;;;5114411;28;20357;-82
2023/07/05 00:59:54;;;;;;;0.00;0.00;;;;;;;;;;5114163;28;20368;-81
2023/07/05 01:02:20;;;;;;;0.00;0.00;;;;;;;;;;5113125;28;20073;-85
2023/07/05 01:04:46;;;;;;;0.00;0.00;;;;;;;;;;5113072;28;20122;-82
2023/07/05 01:07:12;;;;;;;0.00;0.00;;;;;;;;;;5112831;28;20071;-83
2023/07/05 01:09:38;;;;;;;0.00;0.00;;;;;;;;;;5114301;27;20518;-81
2023/07/05 01:12:17;;;;;;;0.00;0.00;;;;;;;;;;5112825;28;20043;-82
2023/07/05 01:14:58;;;;;;;0.00;0.00;;;;;;;;;;5112799;28;20096;-82
2023/07/05 01:17:24;;;;;;;0.00;0.00;;;;;;;;;;5113031;28;20043;-82
2023/07/05 01:19:57;;;;;;;0.00;0.00;;;;;;;;;;5112704;28;20043;-81
2023/07/05 01:22:43;;;;;;;0.00;0.00;;;;;;;;;;5114129;28;20080;-81
2023/07/05 01:25:27;;;;;;;0.00;0.00;;;;;;;;;;5092224;28;20176;-82
2023/07/05 01:28:02;;;;;;;0.00;0.00;;;;;;;;;;5112727;28;20084;-82
2023/07/05 01:30:31;;;;;;;0.00;0.00;;;;;;;;;;5112390;28;20047;-82
2023/07/05 01:32:58;;;;;;;0.10;0.10;;;;;;;;;;5114050;28;20043;-82
2023/07/05 01:35:28;;;;;;;0.00;0.00;;;;;;;;;;5113733;28;20122;-82
2023/07/05 01:37:55;;;;;;;0.00;0.00;;;;;;;;;;5113128;28;20050;-82
2023/07/05 01:40:21;;;;;;;0.00;0.00;;;;;;;;;;5112742;28;20046;-83
2023/07/05 01:42:49;;;;;;;0.00;0.00;;;;;;;;;;5112694;28;20039;-82
2023/07/05 01:45:15;;;;;;;0.00;0.00;;;;;;;;;;5114080;28;20043;-82
2023/07/05 01:47:52;;;;;;;0.00;0.00;;;;;;;;;;5112490;28;20036;-82
2023/07/05 01:50:24;;;;;;;0.00;0.00;;;;;;;;;;5112481;28;20050;-83
2023/07/05 01:53:09;;;;;;;0.00;0.00;;;;;;;;;;5112252;28;20048;-83
2023/07/05 01:55:52;;;;;;;0.00;0.00;;;;;;;;;;5113344;28;20417;-83
2023/07/05 01:58:20;;;;;;;0.00;0.00;;;;;;;;;;5113564;28;20148;-83
2023/07/05 02:00:47;;;;;;;0.00;0.00;;;;;;;;;;5111511;28;20044;-84
2023/07/05 02:03:15;;;;;;;0.00;0.00;;;;;;;;;;5112098;28;20043;-83
2023/07/05 02:05:41;;;;;;;0.00;0.00;;;;;;;;;;5112195;28;20452;-84
2023/07/05 02:08:07;;;;;;;0.00;0.00;;;;;;;;;;5112177;28;20163;-84
2023/07/05 02:10:34;;;;;;;0.00;0.00;;;;;;;;;;5112179;28;20036;-84
2023/07/05 02:13:00;;;;;;;0.00;0.00;;;;;;;;;;5111712;28;20039;-83
2023/07/05 02:15:27;;;;;;;0.00;0.00;;;;;;;;;;5113505;28;20044;-82
2023/07/05 02:17:53;;;;;;;0.00;0.00;;;;;;;;;;5113185;28;20075;-83
2023/07/05 02:20:19;;;;;;;0.00;0.00;;;;;;;;;;5113154;28;20032;-82
2023/07/05 02:22:45;;;;;;;0.00;0.00;;;;;;;;;;5112988;28;20039;-83
2023/07/05 02:25:11;;;;;;;0.00;0.00;;;;;;;;;;5113115;28;20039;-83
2023/07/05 02:27:37;;;;;;;0.00;0.00;;;;;;;;;;5111537;28;20075;-82
2023/07/05 02:30:03;;;;;;;0.00;0.00;;;;;;;;;;5113117;28;20050;-82
2023/07/05 02:32:29;;;;;;;0.00;0.00;;;;;;;;;;5111303;28;20054;-82
2023/07/05 02:35:01;;;;;;;0.00;0.00;;;;;;;;;;5111555;28;20122;-83
2023/07/05 02:37:27;;;;;;;0.00;0.00;;;;;;;;;;5111530;28;20052;-83
2023/07/05 02:39:53;;;;;;;0.00;0.00;;;;;;;;;;5111542;28;20043;-82
2023/07/05 02:42:20;;;;;;;0.00;0.00;;;;;;;;;;5112884;28;20057;-83
2023/07/05 02:44:49;;;;;;;0.00;0.00;;;;;;;;;;5094855;28;20100;-83
2023/07/05 02:47:17;;;;;;;0.00;0.00;;;;;;;;;;5111470;28;20074;-83
2023/07/05 02:49:43;;;;;;;0.00;0.00;;;;;;;;;;5094352;28;20043;-83
2023/07/05 02:52:10;;;;;;;0.00;0.00;;;;;;;;;;5094557;28;20123;-83
2023/07/05 02:54:36;;;;;;;0.00;0.00;;;;;;;;;;5094527;28;20048;-83
2023/07/05 02:57:02;;;;;;;0.00;0.00;;;;;;;;;;5112649;28;20048;-82
2023/07/05 02:59:28;;;;;;;0.00;0.00;;;;;;;;;;5111752;28;20051;-83
2023/07/05 03:01:54;;;;;;;0.00;0.00;;;;;;;;;;5111382;28;20103;-82
2023/07/05 03:04:20;;;;;;;0.00;0.00;;;;;;;;;;5111858;28;20047;-83
2023/07/05 03:06:46;;;;;;;0.00;0.00;;;;;;;;;;5112672;28;20372;-83
2023/07/05 03:09:12;;;;;;;0.00;0.00;;;;;;;;;;5111179;28;20051;-83
2023/07/05 03:11:38;;;;;;;0.00;0.00;;;;;;;;;;5111136;28;20036;-82
2023/07/05 03:14:04;;;;;;;0.00;0.00;;;;;;;;;;5116303;28;20046;-83
2023/07/05 03:16:30;;;;;;;0.00;0.00;;;;;;;;;;5114836;28;20071;-82
2023/07/05 03:18:56;;;;;;;0.00;0.00;;;;;;;;;;5114985;28;20136;-82
2023/07/05 03:21:22;;;;;;;0.00;0.00;;;;;;;;;;5114613;28;20039;-82
2023/07/05 03:23:48;;;;;;;0.00;0.00;;;;;;;;;;5115331;28;20097;-83
2023/07/05 03:26:14;;;;;;;0.00;0.00;;;;;;;;;;5114867;28;20509;-82
2023/07/05 03:28:40;;;;;;;0.00;0.00;;;;;;;;;;5116057;28;20396;-84
2023/07/05 03:31:08;;;;;;;0.00;0.00;;;;;;;;;;5116180;28;20566;-82
2023/07/05 03:33:34;;;;;;;0.00;0.00;;;;;;;;;;5114430;28;20070;-82
2023/07/05 03:36:02;;;;;;;0.00;0.00;;;;;;;;;;5114579;28;20040;-82
2023/07/05 03:38:29;;;;;;;0.00;0.00;;;;;;;;;;5114407;28;20044;-82
2023/07/05 03:40:58;;;;;;;0.00;0.00;;;;;;;;;;5115000;28;20067;-82
2023/07/05 03:43:24;;;;;;;0.00;0.00;;;;;;;;;;5115237;28;20052;-82
2023/07/05 03:45:51;;;;;;;0.00;0.00;;;;;;;;;;5114677;28;20040;-82
2023/07/05 03:48:17;;;;;;;0.00;0.00;;;;;;;;;;5115421;28;20040;-82
2023/07/05 03:50:43;;;;;;;0.00;0.00;;;;;;;;;;5115709;28;20043;-82
2023/07/05 03:53:09;;;;;;;0.00;0.00;;;;;;;;;;5114330;28;20035;-82
2023/07/05 03:55:35;;;;;;;0.00;0.00;;;;;;;;;;5114552;28;20043;-83
2023/07/05 03:58:01;;;;;;;0.00;0.00;;;;;;;;;;5113890;28;20059;-84
2023/07/05 04:00:27;;;;;;;0.00;0.00;;;;;;;;;;5113916;28;20051;-82
2023/07/05 04:02:53;;;;;;;0.00;0.00;;;;;;;;;;5114005;28;20458;-83
2023/07/05 04:05:19;;;;;;;0.00;0.00;;;;;;;;;;5114169;28;20046;-83
2023/07/05 04:07:45;;;;;;;0.00;0.00;;;;;;;;;;5113912;28;20036;-83
2023/07/05 04:10:11;;;;;;;0.00;0.00;;;;;;;;;;5115345;28;20394;-82
2023/07/05 04:12:37;;;;;;;0.00;0.00;;;;;;;;;;5113833;28;20134;-82
2023/07/05 04:15:03;;;;;;;0.00;0.00;;;;;;;;;;5115343;28;20130;-82
2023/07/05 04:17:30;;;;;;;0.00;0.00;;;;;;;;;;5114231;28;20399;-82
2023/07/05 04:19:59;;;;;;;0.00;0.00;;;;;;;;;;5113752;28;20199;-82
2023/07/05 04:22:25;;;;;;;0.10;0.08;;;;;;;;;;5114757;28;20084;-83
2023/07/05 04:24:51;;;;;;;0.00;0.00;;;;;;;;;;5114741;28;20040;-83
2023/07/05 04:27:17;;;;;;;0.00;0.00;;;;;;;;;;5114871;28;20050;-82
2023/07/05 04:29:43;;;;;;;0.00;0.00;;;;;;;;;;5096992;28;20054;-82
2023/07/05 04:32:09;;;;;;;0.00;0.00;;;;;;;;;;5113934;28;20039;-83
2023/07/05 04:34:35;;;;;;;0.00;0.00;;;;;;;;;;5114596;28;20498;-82
2023/07/05 04:37:01;;;;;;;0.00;0.00;;;;;;;;;;5113826;28;20043;-82
2023/07/05 04:39:27;;;;;;;0.00;0.00;;;;;;;;;;5113151;28;20467;-82
2023/07/05 04:41:53;;;;;;;0.00;0.00;;;;;;;;;;5113649;28;20067;-87
2023/07/05 04:44:19;;;;;;;0.00;0.00;;;;;;;;;;5114611;28;20364;-82
2023/07/05 04:46:45;;;;;;;0.00;0.00;;;;;;;;;;5113899;28;20118;-82
2023/07/05 04:49:11;;;;;;;0.00;0.00;;;;;;;;;;5114394;28;20048;-83
2023/07/05 04:51:37;;;;;;;0.00;0.00;;;;;;;;;;5114786;28;20036;-83
2023/07/05 04:54:03;;;;;;;0.00;0.00;;;;;;;;;;5114648;28;20039;-82
2023/07/05 04:56:30;;;;;;;0.00;0.00;;;;;;;;;;5113329;28;20105;-82
2023/07/05 04:58:56;;;;;;;0.00;0.00;;;;;;;;;;5112859;28;20499;-82
2023/07/05 05:01:23;;;;;;;0.00;0.00;;;;;;;;;;5113008;28;20141;-82
2023/07/05 05:03:49;;;;;;;0.00;0.00;;;;;;;;;;5114066;28;20036;-82
2023/07/05 05:06:15;;;;;;;0.00;0.00;;;;;;;;;;5114216;27;20046;-82
2023/07/05 05:08:41;;;;;;;0.00;0.00;;;;;;;;;;5112354;28;20463;-82
2023/07/05 05:11:07;;;;;;;0.00;0.00;;;;;;;;;;5095985;28;20040;-82
2023/07/05 05:13:34;;;;;;;0.00;0.00;;;;;;;;;;5112694;28;20051;-83
2023/07/05 05:16:00;;;;;;;0.00;0.00;;;;;;;;;;5095824;28;20057;-81
2023/07/05 05:18:27;;;;;;;0.00;0.00;;;;;;;;;;5112613;28;20378;-82
2023/07/05 05:20:53;;;;;;;0.00;0.00;;;;;;;;;;5112776;28;20039;-82
2023/07/05 05:23:19;;;;;;;0.00;0.00;;;;;;;;;;5112418;28;20039;-82
2023/07/05 05:25:46;;;;;;;0.00;0.00;;;;;;;;;;5113755;28;20501;-82
2023/07/05 05:28:13;;;;;;;0.00;0.00;;;;;;;;;;5113415;28;20043;-83
2023/07/05 05:30:39;;;;;;;0.00;0.00;;;;;;;;;;5112395;28;20043;-82
2023/07/05 05:33:05;;;;;;;0.00;0.00;;;;;;;;;;5112054;28;20119;-82
2023/07/05 05:35:32;;;;;;;0.00;0.00;;;;;;;;;;5112931;28;20454;-82
2023/07/05 05:37:59;;;;;;;0.00;0.00;;;;;;;;;;5113434;28;20039;-82
2023/07/05 05:40:26;;;;;;;0.00;0.00;;;;;;;;;;5112301;28;20134;-82
2023/07/05 05:42:52;;;;;;;0.00;0.00;;;;;;;;;;5113475;28;20040;-82
2023/07/05 05:45:18;;;;;;;0.00;0.00;;;;;;;;;;5112130;28;20497;-82
2023/07/05 05:47:44;;;;;;;0.00;0.00;;;;;;;;;;5112140;28;20188;-82
2023/07/05 05:50:10;;;;;;;0.00;0.00;;;;;;;;;;5113077;28;20463;-83
2023/07/05 05:52:36;;;;;;;0.00;0.00;;;;;;;;;;5113329;28;20045;-83
2023/07/05 05:55:03;;;;;;;0.00;0.00;;;;;;;;;;5113219;28;20115;-82
2023/07/05 05:57:29;;;;;;;0.00;0.00;;;;;;;;;;5111830;28;20134;-82
2023/07/05 05:59:55;;;;;;;0.00;0.00;;;;;;;;;;5112722;28;20039;-82
2023/07/05 06:02:21;;;;;;;0.00;0.00;;;;;;;;;;5111763;28;20032;-82
2023/07/05 06:04:47;;;;;;;0.00;0.00;;;;;;;;;;5111764;28;20523;-81
2023/07/05 06:07:14;;;;;;;0.00;0.00;;;;;;;;;;5113356;28;20110;-82
2023/07/05 06:09:44;;;;;;;0.00;0.00;;;;;;;;;;5111571;28;20433;-82
2023/07/05 06:12:09;;;;;;;0.00;0.00;;;;;;;;;;5111708;28;20042;-82
2023/07/05 06:14:35;;;;;;;0.00;0.00;;;;;;;;;;5111614;28;20035;-82
2023/07/05 06:17:01;;;;;;;0.00;0.00;;;;;;;;;;5112965;28;20123;-82
2023/07/05 06:19:27;;;;;;;0.00;0.00;;;;;;;;;;5111466;28;20046;-82
2023/07/05 06:21:53;;;;;;;0.00;0.00;;;;;;;;;;5111875;28;20040;-82
2023/07/05 06:24:19;;;;;;;0.00;0.00;;;;;;;;;;5111807;28;20047;-82
2023/07/05 06:26:45;;;;;;;0.00;0.00;;;;;;;;;;5113056;28;20040;-82
2023/07/05 06:29:11;;;;;;;0.00;0.00;;;;;;;;;;5111419;28;20390;-81
2023/07/05 06:31:37;;;;;;;0.00;0.00;;;;;;;;;;5113226;28;20043;-82
2023/07/05 06:34:03;;;;;;;0.00;0.00;;;;;;;;;;5112704;28;20047;-82
2023/07/05 06:36:29;;;;;;;0.00;0.00;;;;;;;;;;5111961;28;20035;-81
2023/07/05 06:38:55;;;;;;;0.00;0.00;;;;;;;;;;5111558;28;20046;-81
2023/07/05 06:41:21;;;;;;;0.00;0.00;;;;;;;;;;5112576;28;20044;-81
2023/07/05 06:43:47;;;;;;;0.00;0.00;;;;;;;;;;5111521;28;20047;-81
2023/07/05 06:46:13;;;;;;;0.00;0.00;;;;;;;;;;5112955;28;20040;-81
2023/07/05 06:48:39;;;;;;;0.00;0.00;;;;;;;;;;5114480;28;20602;-82
2023/07/05 06:51:05;;;;;;;0.00;0.00;;;;;;;;;;5115811;28;20043;-82
2023/07/05 06:53:31;;;;;;;0.00;0.00;;;;;;;;;;5116681;28;20050;-83
2023/07/05 06:55:57;;;;;;;0.00;0.00;;;;;;;;;;5116570;28;20543;-82
2023/07/05 06:58:23;;;;;;;0.00;0.00;;;;;;;;;;5116723;28;20115;-82
2023/07/05 07:00:50;;;;;;;0.00;0.00;;;;;;;;;;5115007;28;20118;-82
2023/07/05 07:03:17;;;;;;;0.00;0.00;;;;;;;;;;5116691;28;20057;-83
2023/07/05 07:05:53;;;;;;;0.00;0.00;;;;;;;;;;5115171;28;20386;-82
2023/07/05 07:08:19;;;;;;;0.00;0.00;;;;;;;;;;5115377;28;20039;-82
2023/07/05 07:10:45;;;;;;;0.00;0.00;;;;;;;;;;5115124;28;20031;-83
2023/07/05 07:13:11;;;;;;;0.00;0.00;;;;;;;;;;5116624;28;20070;-83
2023/07/05 07:15:37;;;;;;;0.00;0.00;;;;;;;;;;5114694;28;20031;-81
2023/07/05 07:18:03;;;;;;;0.00;0.00;;;;;;;;;;5114993;28;20071;-82
2023/07/05 07:20:29;;;;;;;0.00;0.00;;;;;;;;;;5115912;28;20036;-82
2023/07/05 07:22:55;;;;;;;0.00;0.00;;;;;;;;;;5116208;28;20200;-82
2023/07/05 07:25:21;;;;;;;0.00;0.00;;;;;;;;;;5115995;28;20171;-82
2023/07/05 07:27:47;;;;;;;0.00;0.00;;;;;;;;;;5114784;28;20058;-82
2023/07/05 07:30:13;;;;;;;0.00;0.00;;;;;;;;;;5097476;28;20398;-82
2023/07/05 07:32:39;;;;;;;0.00;0.00;;;;;;;;;;5114678;28;20048;-82
2023/07/05 07:35:05;;;;;;;0.00;0.00;;;;;;;;;;5116126;28;20040;-82
2023/07/05 07:37:33;;;;;;;0.00;0.00;;;;;;;;;;5115921;28;20166;-83
2023/07/05 07:39:59;;;;;;;0.00;0.00;;;;;;;;;;5115527;28;20487;-82
2023/07/05 07:42:25;;;;;;;0.00;0.00;;;;;;;;;;5116004;27;20067;-81
2023/07/05 07:44:53;;;;;;;0.00;0.00;;;;;;;;;;5114410;28;20036;-82
2023/07/05 07:47:19;;;;;;;0.00;0.00;;;;;;;;;;5115744;28;20063;-82
2023/07/05 07:49:45;;;;;;;0.00;0.00;;;;;;;;;;5115601;28;20395;-81
2023/07/05 07:52:13;;;;;;;0.00;0.00;;;;;;;;;;5114354;28;20044;-81
2023/07/05 07:54:39;;;;;;;0.00;0.00;;;;;;;;;;5114299;28;20059;-82
2023/07/05 07:57:06;;;;;;;0.00;0.00;;;;;;;;;;5115554;28;20510;-81
2023/07/05 07:59:34;;;;;;;0.00;0.00;;;;;;;;;;5112983;28;20048;-81
2023/07/05 08:02:00;;;;;;;0.20;0.00;;;;;;;;;;5114293;28;20084;-82
2023/07/05 08:04:28;;;;;;;0.00;0.00;;;;;;;;;;5115258;28;20036;-81
2023/07/05 08:06:54;;;;;;;0.00;0.00;;;;;;;;;;5113801;28;20039;-81
2023/07/05 08:09:27;;;;;;;0.00;0.00;;;;;;;;;;5113715;28;20043;-81
2023/07/05 08:11:55;;;;;;;0.00;0.00;;;;;;;;;;5115558;28;20217;-82
2023/07/05 08:14:21;;;;;;;0.00;0.00;;;;;;;;;;5113583;28;20394;-82
2023/07/05 08:16:47;;;;;;;0.20;0.00;;;;;;;;;;5113754;28;20039;-81
2023/07/05 08:19:14;;;;;;;0.00;0.00;;;;;;;;;;5115060;28;20036;-82
2023/07/05 08:21:42;;;;;;;0.00;0.00;;;;;;;;;;5113829;28;20054;-82
2023/07/05 08:24:08;;;;;;;0.00;0.00;;;;;;;;;;5113925;28;20495;-82
2023/07/05 08:26:35;;;;;;;0.00;0.00;;;;;;;;;;5113648;28;20097;-81
2023/07/05 08:29:02;;;;;;;0.00;0.00;;;;;;;;;;5113751;28;20052;-80
2023/07/05 08:31:29;;;;;;;0.00;0.00;;;;;;;;;;5107679;28;20060;-80
2023/07/05 08:33:55;;;;;;;0.00;0.00;;;;;;;;;;5095375;28;20051;-80
2023/07/05 08:36:33;;;;;;;0.00;0.00;;;;;;;;;;5094591;28;20146;-79
2023/07/05 08:39:03;;;;;;;0.00;0.00;;;;;;;;;;5094447;28;20036;-79
2023/07/05 08:41:41;;;;;;;0.00;0.00;;;;;;;;;;5094265;28;20040;-80
2023/07/05 08:44:21;;;;;;;0.00;0.00;;;;;;;;;;5093128;28;20576;-81
2023/07/05 08:46:55;;;;;;;0.00;0.00;;;;;;;;;;5094128;28;20098;-80
2023/07/05 08:49:27;;;;;;;0.00;0.00;;;;;;;;;;5092652;28;20143;-79
2023/07/05 08:51:56;;;;;;;0.00;0.00;;;;;;;;;;5093783;28;20395;-80
2023/07/05 08:54:22;;;;;;;0.00;0.00;;;;;;;;;;5075825;28;20066;-80
2023/07/05 08:56:53;;;;;;;0.00;0.00;;;;;;;;;;5092681;28;20116;-80
2023/07/05 08:59:25;;;;;;;0.00;0.00;;;;;;;;;;5098359;28;20069;-80
2023/07/05 09:01:55;;;;;;;0.00;0.00;;;;;;;;;;5093124;28;20043;-82
2023/07/05 09:04:23;;;;;;;0.00;0.00;;;;;;;;;;5093147;28;20081;-79
2023/07/05 09:06:56;;;;;;;0.00;0.00;;;;;;;;;;5092928;28;20472;-79
2023/07/05 09:09:28;;;;;;;0.00;0.00;;;;;;;;;;5092865;28;20048;-80
2023/07/05 09:12:06;;;;;;;0.00;0.00;;;;;;;;;;5095726;28;20083;-79
2023/07/05 09:14:51;;;;;;;0.00;0.00;;;;;;;;;;5092422;28;20126;-80
2023/07/05 09:17:24;;;;;;;0.00;0.00;;;;;;;;;;5098811;28;20108;-80
2023/07/05 09:19:53;;;;;;;0.00;0.00;;;;;;;;;;5092188;28;20398;-80
2023/07/05 09:22:22;;;;;;;0.00;0.00;;;;;;;;;;5092264;28;20035;-79
2023/07/05 09:24:48;;;;;;;0.00;0.00;;;;;;;;;;5093572;28;20123;-80
2023/07/05 09:27:19;;;;;;;0.00;0.00;;;;;;;;;;5092891;28;20477;-79
2023/07/05 09:29:53;;;;;;;0.00;0.00;;;;;;;;;;5093325;28;20097;-80
2023/07/05 09:32:22;;;;;;;0.00;0.00;;;;;;;;;;5092882;28;20079;-80
2023/07/05 09:34:56;;;;;;;0.00;0.00;;;;;;;;;;5093451;28;20277;-80
2023/07/05 09:37:28;;;;;;;0.00;0.00;;;;;;;;;;5093130;28;20050;-80
2023/07/05 09:40:15;;;;;;;0.00;0.00;;;;;;;;;;5092211;28;20042;-80
2023/07/05 09:42:44;;;;;;;0.00;0.00;;;;;;;;;;5093070;28;20105;-86
2023/07/05 09:45:11;;;;;;;0.00;0.00;;;;;;;;;;5091577;28;20046;-80
2023/07/05 09:47:37;;;;;;;0.00;0.00;;;;;;;;;;5093061;28;20120;-82
2023/07/05 09:50:10;;;;;;;0.00;0.00;;;;;;;;;;5091966;28;20436;-79
2023/07/05 09:52:37;;;;;;;0.00;0.00;;;;;;;;;;5091641;28;20050;-80
2023/07/05 09:55:03;;;;;;;0.00;0.00;;;;;;;;;;5112786;28;20126;-79
2023/07/05 09:57:29;;;;;;;0.00;0.00;;;;;;;;;;5111567;28;20059;-81
2023/07/05 09:59:55;;;;;;;0.00;0.00;;;;;;;;;;5113251;28;20115;-80
2023/07/05 10:02:29;;;;;;;0.00;0.00;;;;;;;;;;5113062;28;20161;-79
2023/07/05 10:04:59;;;;;;;0.00;0.00;;;;;;;;;;5106542;28;20036;-80
2023/07/05 10:07:29;;;;;;;0.00;0.00;;;;;;;;;;5092354;28;20048;-80
2023/07/05 10:09:56;;;;;;;0.00;0.00;;;;;;;;;;5092496;28;20495;-81
2023/07/05 10:12:24;;;;;;;0.00;0.00;;;;;;;;;;5091105;28;20048;-80
2023/07/05 10:14:56;;;;;;;0.00;0.00;;;;;;;;;;5091350;28;20052;-78
2023/07/05 10:17:22;;;;;;;0.00;0.00;;;;;;;;;;5091052;28;20059;-78
2023/07/05 10:19:50;;;;;;;0.00;0.00;;;;;;;;;;5090881;28;20138;-80
2023/07/05 10:22:36;;;;;;;0.00;0.00;;;;;;;;;;5090816;28;20036;-80
2023/07/05 10:25:05;;;;;;;0.00;0.00;;;;;;;;;;5092156;28;20120;-79
2023/07/05 10:27:36;;;;;;;0.00;0.00;;;;;;;;;;5090759;28;20036;-81
2023/07/05 10:30:04;;;;;;;0.00;0.00;;;;;;;;;;5091015;28;20111;-80
2023/07/05 10:32:31;;;;;;;0.00;0.00;;;;;;;;;;5109116;28;20502;-81
2023/07/05 10:34:57;;;;;;;0.00;0.00;;;;;;;;;;5091474;28;20093;-81
2023/07/05 10:37:26;;;;;;;0.00;0.00;;;;;;;;;;5091323;28;20341;-81
2023/07/05 10:39:52;;;;;;;0.00;0.00;;;;;;;;;;5092565;28;20040;-81
2023/07/05 10:42:18;;;;;;;0.00;0.00;;;;;;;;;;5090306;28;20142;-80
2023/07/05 10:44:44;;;;;;;0.00;0.00;;;;;;;;;;5094271;28;20081;-79
2023/07/05 10:47:13;;;;;;;0.00;0.00;;;;;;;;;;5091384;28;20041;-81
2023/07/05 10:49:38;;;;;;;0.00;0.00;;;;;;;;;;5091569;28;20173;-81
2023/07/05 10:52:06;;;;;;;0.00;0.00;;;;;;;;;;5090889;28;20044;-80
2023/07/05 10:54:32;;;;;;;0.00;0.00;;;;;;;;;;5091974;28;20450;-80
2023/07/05 10:57:01;;;;;;;0.00;0.00;;;;;;;;;;5091142;28;20048;-80
2023/07/05 10:59:44;;;;;;;0.00;0.00;;;;;;;;;;5092092;28;20399;-80
2023/07/05 11:02:19;;;;;;;0.00;0.00;;;;;;;;;;5092154;28;20059;-84
2023/07/05 11:04:48;;;;;;;0.00;0.00;;;;;;;;;;5092531;28;20032;-82
2023/07/05 11:07:14;;;;;;;0.00;0.00;;;;;;;;;;5091966;28;20498;-81
2023/07/05 11:09:41;;;;;;;0.00;0.00;;;;;;;;;;5091150;28;20047;-81
2023/07/05 11:12:20;;;;;;;0.00;0.00;;;;;;;;;;5090651;28;20046;-81
2023/07/05 11:14:47;;;;;;;0.00;0.00;;;;;;;;;;5091325;28;20051;-80
2023/07/05 11:17:25;;;;;;;0.00;0.00;;;;;;;;;;5092544;28;20084;-80
2023/07/05 11:19:51;;;;;;;0.00;0.00;;;;;;;;;;5092591;28;20393;-80
2023/07/05 11:22:47;;;;;;;0.00;0.00;;;;;;;;;;5091116;28;20044;-81
2023/07/05 11:25:16;;;;;;;0.00;0.00;;;;;;;;;;5091692;28;20048;-81
2023/07/05 11:27:48;;;;;;;0.00;0.00;;;;;;;;;;5091977;28;20040;-80
2023/07/05 11:30:47;;;;;;;0.00;0.00;;;;;;;;;;5092652;28;20118;-81
2023/07/05 11:33:16;;;;;;;0.00;0.00;;;;;;;;;;5069566;28;20052;-81
2023/07/05 11:35:46;;;;;;;0.00;0.00;;;;;;;;;;5095211;28;20040;-80
2023/07/05 11:38:51;;;;;;;0.00;0.00;;;;;;;;;;5092572;28;20047;-81
2023/07/05 11:41:27;;;;;;;0.00;0.00;;;;;;;;;;5070824;28;20488;-81
2023/07/05 11:43:59;;;;;;;0.00;0.00;;;;;;;;;;5072229;28;20076;-81
2023/07/05 11:46:42;;;;;;;0.00;0.00;;;;;;;;;;5076144;28;20056;-80
2023/07/05 11:49:15;;;;;;;0.00;0.00;;;;;;;;;;5095476;28;20380;-80
2023/07/05 11:51:42;;;;;;;0.00;0.00;;;;;;;;;;5094078;28;20047;-81
2023/07/05 11:54:08;;;;;;;0.00;0.00;;;;;;;;;;5094969;28;20046;-80
2023/07/05 11:56:37;;;;;;;0.00;0.00;;;;;;;;;;5094919;28;20048;-81
2023/07/05 11:59:04;;;;;;;0.00;0.00;;;;;;;;;;5077039;28;20044;-83
2023/07/05 12:01:33;;;;;;;0.00;0.00;;;;;;;;;;5095105;28;20320;-80
2023/07/05 12:04:02;;;;;;;0.00;0.00;;;;;;;;;;5094015;28;20502;-81
2023/07/05 12:06:34;;;;;;;0.00;0.00;;;;;;;;;;5094995;28;20180;-80
2023/07/05 12:09:01;;;;;;;0.00;0.00;;;;;;;;;;5095216;28;20383;-81
2023/07/05 12:11:30;;;;;;;0.00;0.00;;;;;;;;;;5094907;28;20051;-80
2023/07/05 12:14:00;;;;;;;0.00;0.00;;;;;;;;;;5093558;28;20104;-80
2023/07/05 12:16:26;;;;;;;0.28;0.10;;;;;;;;;;5093693;28;20472;-80
2023/07/05 12:18:52;;;;;;;0.00;0.00;;;;;;;;;;5094524;28;20036;-79
2023/07/05 12:21:17;;;;;;;0.00;0.00;;;;;;;;;;5093489;28;20055;-81
2023/07/05 12:23:44;;;;;;;0.00;0.00;;;;;;;;;;5094606;28;20134;-81
2023/07/05 12:26:17;;;;;;;0.00;0.00;;;;;;;;;;5094801;28;20032;-80
2023/07/05 12:28:47;;;;;;;0.00;0.00;;;;;;;;;;5092953;28;20050;-80
2023/07/05 12:31:13;;;;;;;0.00;0.00;;;;;;;;;;5093167;28;20040;-81
2023/07/05 12:33:40;;;;;;;0.00;0.00;;;;;;;;;;5092904;28;20483;-80
2023/07/05 12:36:06;;;;;;;0.00;0.00;;;;;;;;;;5094513;28;20066;-81
2023/07/05 12:38:32;;;;;;;0.00;0.00;;;;;;;;;;5094049;28;20058;-81
2023/07/05 12:40:58;;;;;;;0.00;0.00;;;;;;;;;;5093006;28;20054;-81
2023/07/05 12:43:29;;;;;;;0.00;0.00;;;;;;;;;;5092879;28;20417;-81
2023/07/05 12:46:05;;;;;;;0.00;0.00;;;;;;;;;;5093946;28;20317;-81
2023/07/05 12:48:31;;;;;;;0.00;0.00;;;;;;;;;;5094104;28;20035;-80
2023/07/05 12:51:02;;;;;;;0.00;0.00;;;;;;;;;;5092823;28;20127;-81
2023/07/05 12:53:28;;;;;;;0.00;0.00;;;;;;;;;;5093696;28;20550;-80
2023/07/05 12:55:59;;;;;;;0.00;0.00;;;;;;;;;;5094077;28;20085;-80
2023/07/05 12:58:27;;;;;;;0.00;0.00;;;;;;;;;;5075447;28;20088;-80
2023/07/05 13:00:53;;;;;;;0.00;0.00;;;;;;;;;;5093884;28;20216;-80
2023/07/05 13:03:20;;;;;;;0.00;0.00;;;;;;;;;;5093476;28;20080;-81
2023/07/05 13:05:47;;;;;;;0.00;0.00;;;;;;;;;;5075412;28;20123;-81
2023/07/05 13:08:16;;;;;;;0.00;0.00;;;;;;;;;;5093653;28;20281;-81
2023/07/05 13:10:43;;;;;;;0.00;0.00;;;;;;;;;;5092362;28;20384;-80
2023/07/05 13:13:22;;;;;;;0.00;0.00;;;;;;;;;;5092110;28;20071;-81
2023/07/05 13:15:48;;;;;;;0.00;0.00;;;;;;;;;;5092330;28;20047;-81
2023/07/05 13:18:23;;;;;;;0.00;0.00;;;;;;;;;;5092034;28;20044;-80
2023/07/05 13:20:49;;;;;;;0.00;0.00;;;;;;;;;;5092180;28;20091;-80
2023/07/05 13:23:15;;;;;;;0.00;0.00;;;;;;;;;;5093426;28;20040;-81
2023/07/05 13:25:45;;;;;;;0.00;0.00;;;;;;;;;;5093516;28;20066;-81
2023/07/05 13:28:19;;;;;;;0.00;0.00;;;;;;;;;;5075392;28;20113;-82
2023/07/05 13:30:46;;;;;;;0.00;0.00;;;;;;;;;;5093185;28;20047;-81
2023/07/05 13:33:13;;;;;;;0.00;0.00;;;;;;;;;;5093056;28;20079;-80
2023/07/05 13:35:40;;;;;;;0.00;0.00;;;;;;;;;;5092151;28;20450;-81
2023/07/05 13:38:06;;;;;;;0.00;0.00;;;;;;;;;;5092093;28;20176;-81
2023/07/05 13:40:32;;;;;;;0.00;0.00;;;;;;;;;;5093028;28;20036;-81
2023/07/05 13:43:01;;;;;;;0.00;0.00;;;;;;;;;;5093116;28;20131;-81
2023/07/05 13:45:28;;;;;;;0.00;0.00;;;;;;;;;;5093393;28;20036;-81
2023/07/05 13:47:55;;;;;;;0.00;0.00;;;;;;;;;;5092998;28;20035;-81
2023/07/05 13:50:23;;;;;;;0.00;0.00;;;;;;;;;;5093109;28;20093;-81
2023/07/05 13:52:49;;;;;;;0.00;0.00;;;;;;;;;;5094211;28;20040;-81
2023/07/05 13:55:20;;;;;;;0.00;0.00;;;;;;;;;;5113613;28;20104;-84
2023/07/05 13:57:54;;;;;;;0.00;0.00;;;;;;;;;;5110876;28;20192;-81
2023/07/05 14:00:20;;;;;;;0.00;0.00;;;;;;;;;;5111926;28;20439;-81
2023/07/05 14:02:47;;;;;;;0.10;0.10;;;;;;;;;;5113120;28;20031;-81
2023/07/05 14:05:13;;;;;;;0.00;0.00;;;;;;;;;;5104051;28;20036;-81
2023/07/05 14:07:39;;;;;;;0.00;0.00;;;;;;;;;;5091865;28;20036;-81
2023/07/05 14:10:05;;;;;;;0.00;0.00;;;;;;;;;;5091513;28;20616;-79
2023/07/05 14:12:31;;;;;;;0.00;0.00;;;;;;;;;;5074574;28;20131;-84
2023/07/05 14:14:57;;;;;;;0.00;0.00;;;;;;;;;;5091271;28;20040;-80
2023/07/05 14:17:24;;;;;;;0.00;0.00;;;;;;;;;;5092647;28;20505;-81
2023/07/05 14:19:50;;;;;;;0.00;0.00;;;;;;;;;;5090847;28;20118;-80
2023/07/05 14:22:17;;;;;;;0.00;0.00;;;;;;;;;;5095902;28;20031;-80
2023/07/05 14:24:44;;;;;;;0.00;0.00;;;;;;;;;;5111658;28;20036;-80
2023/07/05 14:27:14;;;;;;;0.00;0.00;;;;;;;;;;5113040;28;20044;-80
2023/07/05 14:29:40;;;;;;;0.00;0.00;;;;;;;;;;5111724;28;20466;-81
2023/07/05 14:32:09;;;;;;;0.00;0.00;;;;;;;;;;5112961;28;20075;-81
2023/07/05 14:34:35;;;;;;;0.00;0.00;;;;;;;;;;5111498;28;20036;-81
2023/07/05 14:37:01;;;;;;;0.00;0.00;;;;;;;;;;5111571;28;20089;-80
2023/07/05 14:39:27;;;;;;;0.00;0.00;;;;;;;;;;5111218;28;20055;-80
2023/07/05 14:41:54;;;;;;;0.00;0.00;;;;;;;;;;5113047;28;20039;-80
2023/07/05 14:44:20;;;;;;;0.00;0.00;;;;;;;;;;5111492;28;20475;-82
2023/07/05 14:46:46;;;;;;;0.00;0.00;;;;;;;;;;5112757;28;20403;-81
2023/07/05 14:49:13;;;;;;;0.00;0.00;;;;;;;;;;5112887;28;20047;-81